Time;durP1;ratioP1;P1;durP2;ratioP2;P2;SDS_P1;SDS_P2;PMS_P1;PMS_P2;Temp;Humidity;BMP_temperature;BMP_pressure;BME280_temperature;BME280_humidity;BME280_pressure;Samples;Min_cycle;Max_cycle;Signal;HPM_P1;HPM_P2
2022/02/20 00:00:21;;;;;;;13.90;8.50;;;;;;;;;;753503;184;674576;-68
2022/02/20 00:02:48;;;;;;;11.60;6.83;;;;;;;;;;756744;185;626250;-68
2022/02/20 00:05:13;;;;;;;12.63;5.10;;;;;;;;;;754973;184;628587;-70
2022/02/20 00:07:38;;;;;;;12.87;6.43;;;;;;;;;;762617;184;629282;-68
2022/02/20 00:10:05;;;;;;;10.70;5.33;;;;;;;;;;760282;184;616840;-67
2022/02/20 00:12:30;;;;;;;15.90;7.00;;;;;;;;;;758425;183;622746;-69
2022/02/20 00:14:56;;;;;;;14.40;7.20;;;;;;;;;;756737;184;618658;-69
2022/02/20 00:17:22;;;;;;;13.17;6.40;;;;;;;;;;757313;184;624874;-69
2022/02/20 00:19:49;;;;;;;11.90;6.60;;;;;;;;;;759445;184;628605;-69
2022/02/20 00:22:14;;;;;;;10.70;5.93;;;;;;;;;;753399;186;641703;-67
2022/02/20 00:24:40;;;;;;;12.10;6.40;;;;;;;;;;750543;185;627198;-69
2022/02/20 00:27:05;;;;;;;9.87;6.30;;;;;;;;;;751363;184;634634;-68
2022/02/20 00:29:31;;;;;;;12.03;5.83;;;;;;;;;;758803;181;633466;-68
2022/02/20 00:31:57;;;;;;;13.17;5.93;;;;;;;;;;762012;184;628111;-69
2022/02/20 00:34:23;;;;;;;12.30;6.77;;;;;;;;;;768511;183;616940;-70
2022/02/20 00:36:49;;;;;;;10.27;7.30;;;;;;;;;;753095;183;637467;-69
2022/02/20 00:39:16;;;;;;;12.40;6.40;;;;;;;;;;755288;187;645783;-69
2022/02/20 00:41:41;;;;;;;12.67;6.03;;;;;;;;;;762213;184;630354;-68
2022/02/20 00:44:07;;;;;;;17.33;7.17;;;;;;;;;;752047;184;635295;-69
2022/02/20 00:46:33;;;;;;;14.53;6.03;;;;;;;;;;754019;184;623136;-69
2022/02/20 00:48:59;;;;;;;14.63;5.97;;;;;;;;;;746230;183;629953;-69
2022/02/20 00:51:25;;;;;;;19.57;6.40;;;;;;;;;;751814;184;644063;-69
2022/02/20 00:53:51;;;;;;;12.20;6.07;;;;;;;;;;749663;187;623734;-68
2022/02/20 00:56:16;;;;;;;10.27;6.83;;;;;;;;;;758018;184;620131;-69
2022/02/20 00:58:42;;;;;;;18.95;6.82;;;;;;;;;;753570;184;635285;-68
2022/02/20 01:01:08;;;;;;;11.23;5.90;;;;;;;;;;757925;184;620208;-69
2022/02/20 01:03:34;;;;;;;14.57;7.07;;;;;;;;;;758248;184;626552;-68
2022/02/20 01:06:00;;;;;;;10.47;6.10;;;;;;;;;;756172;184;634224;-68
2022/02/20 01:08:26;;;;;;;15.53;7.20;;;;;;;;;;752929;186;626379;-68
2022/02/20 01:10:51;;;;;;;20.37;9.93;;;;;;;;;;756450;184;679984;-69
2022/02/20 01:13:17;;;;;;;29.30;15.57;;;;;;;;;;749147;184;635248;-68
2022/02/20 01:15:43;;;;;;;29.23;14.80;;;;;;;;;;754983;184;643446;-68
2022/02/20 01:18:09;;;;;;;23.27;13.30;;;;;;;;;;763573;184;639623;-68
2022/02/20 01:20:35;;;;;;;27.70;12.57;;;;;;;;;;762737;181;641059;-69
2022/02/20 01:23:01;;;;;;;17.80;9.87;;;;;;;;;;761936;184;625267;-67
2022/02/20 01:25:27;;;;;;;18.10;8.20;;;;;;;;;;754722;183;627145;-68
2022/02/20 01:27:53;;;;;;;22.73;9.90;;;;;;;;;;754780;184;625019;-68
2022/02/20 01:30:18;;;;;;;23.43;9.57;;;;;;;;;;751552;184;642809;-68
2022/02/20 01:32:44;;;;;;;17.27;8.40;;;;;;;;;;740290;184;627860;-68
2022/02/20 01:35:10;;;;;;;21.90;7.10;;;;;;;;;;754564;184;641156;-68
2022/02/20 01:37:36;;;;;;;9.47;7.20;;;;;;;;;;751379;184;636481;-68
2022/02/20 01:40:02;;;;;;;17.20;9.07;;;;;;;;;;762808;184;628506;-67
2022/02/20 01:42:28;;;;;;;18.53;8.53;;;;;;;;;;755718;183;624934;-67
2022/02/20 01:44:54;;;;;;;21.20;8.60;;;;;;;;;;760184;183;625097;-68
2022/02/20 01:47:20;;;;;;;16.60;8.17;;;;;;;;;;753641;183;618904;-68
2022/02/20 01:49:45;;;;;;;19.57;10.23;;;;;;;;;;759100;183;636970;-67
2022/02/20 01:52:11;;;;;;;13.27;8.60;;;;;;;;;;766019;184;625253;-68
2022/02/20 01:54:37;;;;;;;13.40;8.33;;;;;;;;;;756471;184;615248;-68
2022/02/20 01:57:03;;;;;;;14.00;9.00;;;;;;;;;;752329;184;625035;-68
2022/02/20 01:59:29;;;;;;;18.57;8.63;;;;;;;;;;764030;184;628914;-68
2022/02/20 02:01:55;;;;;;;22.17;10.57;;;;;;;;;;764573;184;622911;-68
2022/02/20 02:04:21;;;;;;;18.57;11.00;;;;;;;;;;751676;184;626215;-68
2022/02/20 02:06:46;;;;;;;26.33;13.00;;;;;;;;;;757514;183;632943;-69
2022/02/20 02:09:12;;;;;;;23.70;9.93;;;;;;;;;;747779;184;631725;-67
2022/02/20 02:11:38;;;;;;;23.93;10.23;;;;;;;;;;750123;184;616544;-67
2022/02/20 02:14:04;;;;;;;22.90;11.40;;;;;;;;;;751410;184;619875;-68
2022/02/20 02:16:30;;;;;;;29.20;12.50;;;;;;;;;;771447;179;614680;-68
2022/02/20 02:18:56;;;;;;;18.57;10.70;;;;;;;;;;748057;184;628928;-68
2022/02/20 02:21:21;;;;;;;36.40;13.53;;;;;;;;;;755449;184;612837;-69
2022/02/20 02:23:47;;;;;;;22.07;13.77;;;;;;;;;;767098;184;652256;-68
2022/02/20 02:26:15;;;;;;;26.40;13.30;;;;;;;;;;759869;184;614352;-68
2022/02/20 02:28:39;;;;;;;24.40;12.70;;;;;;;;;;750764;185;646509;-69
2022/02/20 02:31:05;;;;;;;25.47;13.67;;;;;;;;;;756535;183;635923;-68
2022/02/20 02:33:31;;;;;;;28.40;12.50;;;;;;;;;;756826;184;629923;-68
2022/02/20 02:35:57;;;;;;;22.07;12.13;;;;;;;;;;758264;184;640793;-68
2022/02/20 02:38:26;;;;;;;21.00;11.57;;;;;;;;;;760549;184;632485;-68
2022/02/20 02:40:48;;;;;;;27.30;14.20;;;;;;;;;;756698;184;812707;-67
2022/02/20 02:43:14;;;;;;;25.17;15.70;;;;;;;;;;752612;185;634837;-68
2022/02/20 02:45:40;;;;;;;30.33;15.20;;;;;;;;;;753529;185;634191;-67
2022/02/20 02:48:06;;;;;;;27.43;13.27;;;;;;;;;;759950;184;632074;-67
2022/02/20 02:50:32;;;;;;;26.07;14.60;;;;;;;;;;762688;184;624767;-70
2022/02/20 02:52:58;;;;;;;28.10;14.97;;;;;;;;;;751887;184;628070;-68
2022/02/20 02:55:24;;;;;;;28.40;14.00;;;;;;;;;;755967;183;613969;-68
2022/02/20 02:57:50;;;;;;;29.23;14.43;;;;;;;;;;764452;183;639385;-68
2022/02/20 03:00:16;;;;;;;30.63;14.03;;;;;;;;;;755039;184;619237;-67
2022/02/20 03:02:43;;;;;;;24.90;12.50;;;;;;;;;;755586;184;630220;-67
2022/02/20 03:05:07;;;;;;;27.20;15.83;;;;;;;;;;758692;183;626019;-67
2022/02/20 03:07:33;;;;;;;30.97;16.93;;;;;;;;;;757904;183;622655;-67
2022/02/20 03:09:59;;;;;;;32.27;16.10;;;;;;;;;;756278;184;645469;-67
2022/02/20 03:12:25;;;;;;;32.87;17.37;;;;;;;;;;766104;181;627392;-68
2022/02/20 03:14:51;;;;;;;27.87;15.50;;;;;;;;;;754287;185;621352;-68
2022/02/20 03:17:17;;;;;;;30.00;16.10;;;;;;;;;;749865;184;626782;-67
2022/02/20 03:19:42;;;;;;;34.23;16.10;;;;;;;;;;753600;183;618108;-68
2022/02/20 03:22:08;;;;;;;24.33;13.07;;;;;;;;;;753855;183;621528;-69
2022/02/20 03:24:34;;;;;;;4.93;3.20;;;;;;;;;;756982;184;629547;-69
2022/02/20 03:27:00;;;;;;;11.57;3.50;;;;;;;;;;758388;184;633987;-69
2022/02/20 03:29:26;;;;;;;9.13;2.80;;;;;;;;;;752608;184;633095;-69
2022/02/20 03:31:52;;;;;;;6.40;2.40;;;;;;;;;;757982;184;627770;-69
2022/02/20 03:34:18;;;;;;;7.30;2.47;;;;;;;;;;767272;184;657155;-70
2022/02/20 03:36:43;;;;;;;7.73;2.60;;;;;;;;;;753280;184;626112;-70
2022/02/20 03:39:09;;;;;;;9.20;3.07;;;;;;;;;;762483;184;628598;-69
2022/02/20 03:41:35;;;;;;;4.73;2.60;;;;;;;;;;751138;184;636906;-70
2022/02/20 03:44:01;;;;;;;10.63;1.87;;;;;;;;;;767971;184;627974;-69
2022/02/20 03:46:27;;;;;;;8.50;2.00;;;;;;;;;;752562;185;620197;-69
2022/02/20 03:48:53;;;;;;;9.57;2.12;;;;;;;;;;753030;186;625481;-69
2022/02/20 03:51:18;;;;;;;5.40;2.00;;;;;;;;;;753587;187;618960;-70
2022/02/20 03:53:44;;;;;;;8.17;2.33;;;;;;;;;;751846;184;647188;-69
2022/02/20 03:56:10;;;;;;;11.23;3.27;;;;;;;;;;765863;184;642533;-69
2022/02/20 03:58:37;;;;;;;9.93;2.43;;;;;;;;;;754037;184;675021;-70
2022/02/20 04:01:02;;;;;;;21.50;2.90;;;;;;;;;;760675;184;627239;-69
2022/02/20 04:03:28;;;;;;;4.87;2.43;;;;;;;;;;757173;181;634495;-69
2022/02/20 04:05:53;;;;;;;6.93;2.90;;;;;;;;;;758837;183;628076;-68
2022/02/20 04:08:19;;;;;;;7.70;3.30;;;;;;;;;;758994;183;626573;-69
2022/02/20 04:10:45;;;;;;;7.70;2.70;;;;;;;;;;758377;182;649291;-67
2022/02/20 04:13:11;;;;;;;4.90;2.83;;;;;;;;;;757164;183;624467;-67
2022/02/20 04:15:37;;;;;;;10.63;2.30;;;;;;;;;;761663;184;614942;-66
2022/02/20 04:18:03;;;;;;;8.73;2.70;;;;;;;;;;757781;183;626412;-66
2022/02/20 04:20:28;;;;;;;5.27;1.20;;;;;;;;;;757162;184;623270;-66
2022/02/20 04:22:54;;;;;;;8.53;2.87;;;;;;;;;;759434;184;618682;-66
2022/02/20 04:25:20;;;;;;;3.50;1.43;;;;;;;;;;754158;184;633727;-67
2022/02/20 04:27:46;;;;;;;8.33;2.33;;;;;;;;;;754527;183;626633;-66
2022/02/20 04:30:16;;;;;;;8.23;2.30;;;;;;;;;;755518;184;627702;-66
2022/02/20 04:32:41;;;;;;;5.07;1.90;;;;;;;;;;762073;183;625552;-67
2022/02/20 04:35:07;;;;;;;9.33;2.33;;;;;;;;;;754264;184;642853;-67
2022/02/20 04:37:33;;;;;;;9.20;1.70;;;;;;;;;;757949;184;623036;-67
2022/02/20 04:40:00;;;;;;;5.10;2.37;;;;;;;;;;756934;184;636408;-67
2022/02/20 04:42:25;;;;;;;5.23;1.73;;;;;;;;;;752852;184;625283;-69
2022/02/20 04:44:50;;;;;;;9.50;2.13;;;;;;;;;;755342;185;628117;-69
2022/02/20 04:47:16;;;;;;;8.00;2.17;;;;;;;;;;756447;184;622054;-68
2022/02/20 04:49:42;;;;;;;3.93;2.20;;;;;;;;;;756307;184;628810;-67
2022/02/20 04:52:08;;;;;;;4.37;1.30;;;;;;;;;;755477;184;650552;-65
2022/02/20 04:54:34;;;;;;;4.03;1.75;;;;;;;;;;757930;184;638176;-64
2022/02/20 04:57:00;;;;;;;7.60;2.50;;;;;;;;;;765728;181;631649;-63
2022/02/20 04:59:26;;;;;;;11.20;2.57;;;;;;;;;;753306;184;632629;-64
2022/02/20 05:01:52;;;;;;;4.93;2.10;;;;;;;;;;754763;184;621291;-63
2022/02/20 05:04:17;;;;;;;6.10;2.00;;;;;;;;;;761494;184;625041;-62
2022/02/20 05:06:43;;;;;;;4.10;1.77;;;;;;;;;;758342;184;633152;-62
2022/02/20 05:09:09;;;;;;;7.17;1.90;;;;;;;;;;754612;184;625660;-62
2022/02/20 05:11:35;;;;;;;10.20;2.40;;;;;;;;;;761939;184;628528;-61
2022/02/20 05:14:01;;;;;;;7.12;3.00;;;;;;;;;;754888;184;623866;-61
2022/02/20 05:16:27;;;;;;;10.00;2.47;;;;;;;;;;756109;183;631918;-60
2022/02/20 05:18:52;;;;;;;7.90;2.10;;;;;;;;;;760410;183;620129;-62
2022/02/20 05:21:18;;;;;;;6.20;2.33;;;;;;;;;;757635;184;624097;-61
2022/02/20 05:23:44;;;;;;;5.53;2.27;;;;;;;;;;756424;183;645465;-61
2022/02/20 05:26:11;;;;;;;11.83;2.67;;;;;;;;;;754252;183;629148;-61
2022/02/20 05:28:36;;;;;;;9.83;3.10;;;;;;;;;;765767;180;615473;-61
2022/02/20 05:31:02;;;;;;;8.30;2.53;;;;;;;;;;757727;184;633672;-61
2022/02/20 05:33:28;;;;;;;3.83;2.30;;;;;;;;;;761170;184;638237;-64
2022/02/20 05:35:53;;;;;;;9.70;2.87;;;;;;;;;;760984;183;623313;-62
2022/02/20 05:38:19;;;;;;;8.30;3.03;;;;;;;;;;755487;184;624342;-61
2022/02/20 05:40:45;;;;;;;6.33;2.13;;;;;;;;;;754789;184;634212;-61
2022/02/20 05:43:11;;;;;;;7.23;3.00;;;;;;;;;;766985;183;625308;-61
2022/02/20 05:45:37;;;;;;;13.93;2.92;;;;;;;;;;753961;185;643655;-62
2022/02/20 05:48:04;;;;;;;4.77;2.70;;;;;;;;;;756666;183;626146;-62
2022/02/20 05:50:29;;;;;;;5.30;2.20;;;;;;;;;;758866;183;634173;-61
2022/02/20 05:52:55;;;;;;;9.30;3.37;;;;;;;;;;761983;180;625030;-62
2022/02/20 05:55:21;;;;;;;6.82;2.12;;;;;;;;;;754733;184;621444;-62
2022/02/20 05:57:47;;;;;;;4.33;2.13;;;;;;;;;;758202;183;633550;-62
2022/02/20 06:00:13;;;;;;;15.38;3.12;;;;;;;;;;761928;183;627536;-62
2022/02/20 06:02:39;;;;;;;7.60;2.43;;;;;;;;;;752641;186;638586;-62
2022/02/20 06:05:05;;;;;;;6.33;2.60;;;;;;;;;;754221;184;631558;-63
2022/02/20 06:07:31;;;;;;;9.40;1.97;;;;;;;;;;755391;185;661357;-63
2022/02/20 06:09:57;;;;;;;6.93;1.80;;;;;;;;;;759944;184;615323;-62
2022/02/20 06:12:23;;;;;;;6.13;2.10;;;;;;;;;;755883;184;634957;-64
2022/02/20 06:14:48;;;;;;;4.67;2.00;;;;;;;;;;759957;184;619214;-62
2022/02/20 06:17:14;;;;;;;5.50;1.77;;;;;;;;;;754793;184;638000;-62
2022/02/20 06:19:40;;;;;;;7.60;2.47;;;;;;;;;;753904;184;631339;-64
2022/02/20 06:22:06;;;;;;;10.63;2.10;;;;;;;;;;754483;184;672903;-62
2022/02/20 06:24:32;;;;;;;4.10;2.10;;;;;;;;;;760110;184;641348;-63
2022/02/20 06:26:58;;;;;;;4.50;2.10;;;;;;;;;;757163;184;634936;-64
2022/02/20 06:29:23;;;;;;;5.20;1.77;;;;;;;;;;756184;184;646612;-65
2022/02/20 06:31:49;;;;;;;5.30;1.97;;;;;;;;;;761283;183;673549;-64
2022/02/20 06:34:15;;;;;;;5.33;2.03;;;;;;;;;;756500;184;623893;-65
2022/02/20 06:36:41;;;;;;;8.83;2.43;;;;;;;;;;757730;184;640394;-65
2022/02/20 06:39:07;;;;;;;7.70;2.27;;;;;;;;;;761128;184;615673;-65
2022/02/20 06:41:33;;;;;;;4.30;1.90;;;;;;;;;;761488;183;624189;-65
2022/02/20 06:43:58;;;;;;;4.33;1.87;;;;;;;;;;756060;183;622127;-65
2022/02/20 06:46:25;;;;;;;5.97;2.33;;;;;;;;;;754763;184;632443;-64
2022/02/20 06:48:50;;;;;;;4.03;1.80;;;;;;;;;;772955;181;620292;-65
2022/02/20 06:51:16;;;;;;;8.37;2.57;;;;;;;;;;756444;183;647750;-63
2022/02/20 06:53:42;;;;;;;7.83;2.23;;;;;;;;;;752201;184;627625;-65
2022/02/20 06:56:08;;;;;;;3.90;1.80;;;;;;;;;;760329;184;616241;-64
2022/02/20 06:58:34;;;;;;;10.80;2.33;;;;;;;;;;752123;183;638319;-64
2022/02/20 07:01:00;;;;;;;6.50;2.07;;;;;;;;;;754934;183;652318;-65
2022/02/20 07:03:25;;;;;;;4.00;2.20;;;;;;;;;;763752;184;615088;-65
2022/02/20 07:05:51;;;;;;;5.70;2.57;;;;;;;;;;751700;184;625726;-63
2022/02/20 07:08:17;;;;;;;6.40;1.83;;;;;;;;;;752837;184;691348;-64
2022/02/20 07:10:43;;;;;;;4.23;1.80;;;;;;;;;;759881;184;625165;-64
2022/02/20 07:13:09;;;;;;;3.70;2.50;;;;;;;;;;757142;184;614986;-64
2022/02/20 07:15:34;;;;;;;6.37;2.70;;;;;;;;;;750937;185;635015;-65
2022/02/20 07:18:00;;;;;;;9.40;2.80;;;;;;;;;;751321;185;630118;-64
2022/02/20 07:20:26;;;;;;;8.93;2.53;;;;;;;;;;759535;183;629445;-63
2022/02/20 07:22:52;;;;;;;4.95;2.03;;;;;;;;;;756015;184;643903;-64
2022/02/20 07:25:19;;;;;;;4.80;2.10;;;;;;;;;;754375;184;628041;-64
2022/02/20 07:27:44;;;;;;;5.03;2.57;;;;;;;;;;755704;184;623349;-64
2022/02/20 07:30:10;;;;;;;5.80;2.20;;;;;;;;;;753465;184;654136;-63
2022/02/20 07:32:36;;;;;;;17.33;2.30;;;;;;;;;;760387;183;629294;-64
2022/02/20 07:35:02;;;;;;;3.83;1.93;;;;;;;;;;758798;184;627850;-64
2022/02/20 07:37:29;;;;;;;3.27;1.70;;;;;;;;;;753111;184;660107;-64
2022/02/20 07:39:53;;;;;;;3.17;1.90;;;;;;;;;;759717;182;638377;-63
2022/02/20 07:42:19;;;;;;;3.40;1.77;;;;;;;;;;759596;183;623173;-62
2022/02/20 07:44:45;;;;;;;10.80;2.70;;;;;;;;;;765800;183;634330;-63
2022/02/20 07:47:11;;;;;;;4.70;2.27;;;;;;;;;;758101;183;723254;-62
2022/02/20 07:49:37;;;;;;;5.60;1.90;;;;;;;;;;757146;184;638837;-63
2022/02/20 07:52:03;;;;;;;3.03;1.77;;;;;;;;;;761083;183;621184;-63
2022/02/20 07:54:29;;;;;;;6.77;2.47;;;;;;;;;;759198;184;635592;-62
2022/02/20 07:56:55;;;;;;;3.23;1.70;;;;;;;;;;755925;183;688528;-62
2022/02/20 07:59:20;;;;;;;5.87;2.00;;;;;;;;;;757564;184;627957;-63
2022/02/20 08:01:48;;;;;;;4.20;2.00;;;;;;;;;;763883;184;621014;-62
2022/02/20 08:04:12;;;;;;;2.50;1.53;;;;;;;;;;753622;184;628218;-63
2022/02/20 08:06:38;;;;;;;4.20;1.97;;;;;;;;;;759155;184;626206;-61
2022/02/20 08:09:05;;;;;;;2.90;1.97;;;;;;;;;;755448;184;623577;-61
2022/02/20 08:11:30;;;;;;;2.10;1.07;;;;;;;;;;755780;184;633507;-62
2022/02/20 08:13:55;;;;;;;3.10;1.40;;;;;;;;;;755706;184;623808;-61
2022/02/20 08:16:21;;;;;;;6.10;1.80;;;;;;;;;;756948;184;627773;-62
2022/02/20 08:18:47;;;;;;;2.70;1.63;;;;;;;;;;754542;184;631481;-63
2022/02/20 08:21:13;;;;;;;3.10;1.87;;;;;;;;;;753595;184;626998;-61
2022/02/20 08:23:39;;;;;;;3.97;1.83;;;;;;;;;;759342;184;708324;-62
2022/02/20 08:26:05;;;;;;;4.93;1.93;;;;;;;;;;756038;184;628759;-62
2022/02/20 08:28:30;;;;;;;4.63;1.90;;;;;;;;;;754251;184;634716;-62
2022/02/20 08:30:56;;;;;;;3.93;2.30;;;;;;;;;;757418;184;625315;-61
2022/02/20 08:33:22;;;;;;;4.93;2.57;;;;;;;;;;757888;184;631951;-62
2022/02/20 08:35:48;;;;;;;3.10;1.50;;;;;;;;;;751977;186;619369;-62
2022/02/20 08:38:16;;;;;;;4.83;2.20;;;;;;;;;;764508;183;624324;-62
2022/02/20 08:40:42;;;;;;;2.53;1.43;;;;;;;;;;754850;184;618738;-62
2022/02/20 08:43:05;;;;;;;3.23;1.80;;;;;;;;;;752323;184;632947;-62
2022/02/20 08:45:31;;;;;;;3.17;2.00;;;;;;;;;;757310;184;636055;-61
2022/02/20 08:47:57;;;;;;;6.13;2.03;;;;;;;;;;755817;184;636619;-61
2022/02/20 08:50:23;;;;;;;2.60;1.58;;;;;;;;;;758452;181;625626;-62
2022/02/20 08:52:51;;;;;;;9.93;2.07;;;;;;;;;;755578;184;632463;-62
2022/02/20 08:55:15;;;;;;;3.10;1.50;;;;;;;;;;765420;183;613181;-62
2022/02/20 08:57:43;;;;;;;2.93;1.70;;;;;;;;;;757424;183;624827;-62
2022/02/20 09:00:07;;;;;;;3.40;1.43;;;;;;;;;;761443;184;733202;-61
2022/02/20 09:02:33;;;;;;;3.13;1.80;;;;;;;;;;760413;184;631876;-63
2022/02/20 09:04:58;;;;;;;2.67;1.30;;;;;;;;;;748981;184;641158;-62
2022/02/20 09:07:24;;;;;;;2.30;1.30;;;;;;;;;;753983;185;645038;-62
2022/02/20 09:09:50;;;;;;;2.00;1.10;;;;;;;;;;756882;184;633039;-62
2022/02/20 09:12:16;;;;;;;8.30;1.70;;;;;;;;;;748313;183;615200;-62
2022/02/20 09:14:42;;;;;;;3.20;1.47;;;;;;;;;;751659;183;638573;-62
2022/02/20 09:17:08;;;;;;;2.60;1.70;;;;;;;;;;749929;187;624265;-62
2022/02/20 09:19:33;;;;;;;4.27;2.10;;;;;;;;;;756216;183;634733;-62
2022/02/20 09:21:59;;;;;;;5.50;1.90;;;;;;;;;;755051;184;639689;-62
2022/02/20 09:24:25;;;;;;;3.30;1.40;;;;;;;;;;754859;184;648071;-63
2022/02/20 09:26:51;;;;;;;3.07;1.90;;;;;;;;;;758164;184;627194;-62
2022/02/20 09:29:17;;;;;;;3.60;1.90;;;;;;;;;;756947;184;639562;-62
2022/02/20 09:31:43;;;;;;;4.00;1.70;;;;;;;;;;755544;184;628200;-62
2022/02/20 09:34:08;;;;;;;2.77;1.40;;;;;;;;;;758061;184;632646;-62
2022/02/20 09:36:34;;;;;;;2.03;1.20;;;;;;;;;;754638;184;624473;-62
2022/02/20 09:39:00;;;;;;;4.10;2.27;;;;;;;;;;753777;184;629745;-61
2022/02/20 09:41:26;;;;;;;3.50;1.30;;;;;;;;;;754818;184;620141;-62
2022/02/20 09:43:52;;;;;;;2.53;1.60;;;;;;;;;;756396;184;626643;-62
2022/02/20 09:46:18;;;;;;;4.03;1.37;;;;;;;;;;755205;184;641117;-62
2022/02/20 09:48:45;;;;;;;2.53;1.40;;;;;;;;;;754826;184;621995;-61
2022/02/20 09:51:09;;;;;;;4.50;1.90;;;;;;;;;;756394;184;616627;-62
2022/02/20 09:53:35;;;;;;;3.00;1.63;;;;;;;;;;755937;184;660784;-62
2022/02/20 09:56:01;;;;;;;7.70;2.13;;;;;;;;;;759278;184;620807;-61
2022/02/20 09:58:27;;;;;;;3.00;1.67;;;;;;;;;;761939;184;633851;-61
2022/02/20 10:00:53;;;;;;;2.50;1.30;;;;;;;;;;760224;184;641934;-62
2022/02/20 10:03:25;;;;;;;5.40;1.60;;;;;;;;;;758613;181;623841;-62
2022/02/20 10:05:51;;;;;;;3.20;1.20;;;;;;;;;;759223;184;654690;-61
2022/02/20 10:08:18;;;;;;;2.73;1.33;;;;;;;;;;761256;183;616723;-61
2022/02/20 10:10:44;;;;;;;2.83;1.70;;;;;;;;;;757520;183;626987;-62
2022/02/20 10:13:09;;;;;;;2.10;1.00;;;;;;;;;;754653;184;628935;-60
2022/02/20 10:15:36;;;;;;;2.73;1.43;;;;;;;;;;758993;184;637504;-61
2022/02/20 10:18:08;;;;;;;3.23;1.40;;;;;;;;;;755848;184;623540;-61
2022/02/20 10:20:33;;;;;;;4.87;2.27;;;;;;;;;;760482;184;626706;-62
2022/02/20 10:22:59;;;;;;;3.07;1.50;;;;;;;;;;763797;184;631442;-61
2022/02/20 10:25:25;;;;;;;2.53;1.17;;;;;;;;;;763162;184;631388;-61
2022/02/20 10:27:52;;;;;;;4.40;1.90;;;;;;;;;;758831;184;619146;-61
2022/02/20 10:30:26;;;;;;;3.13;1.40;;;;;;;;;;759494;184;628037;-61
2022/02/20 10:32:58;;;;;;;2.70;1.70;;;;;;;;;;757074;184;626778;-61
2022/02/20 10:35:24;;;;;;;5.33;1.83;;;;;;;;;;764045;184;617076;-62
2022/02/20 10:37:50;;;;;;;3.87;1.40;;;;;;;;;;755401;184;623729;-60
2022/02/20 10:40:21;;;;;;;3.67;1.83;;;;;;;;;;752854;184;634646;-61
2022/02/20 10:42:48;;;;;;;3.07;1.63;;;;;;;;;;754361;184;634426;-63
2022/02/20 10:45:13;;;;;;;2.23;1.50;;;;;;;;;;758283;184;619795;-61
2022/02/20 10:47:39;;;;;;;7.27;1.90;;;;;;;;;;755707;184;635956;-60
2022/02/20 10:50:10;;;;;;;6.60;2.23;;;;;;;;;;753942;184;614498;-62
2022/02/20 10:52:36;;;;;;;2.90;1.50;;;;;;;;;;768763;183;620819;-61
2022/02/20 10:55:10;;;;;;;3.33;1.70;;;;;;;;;;752357;184;628258;-60
2022/02/20 10:57:36;;;;;;;3.83;2.10;;;;;;;;;;752371;184;640841;-60
2022/02/20 11:00:07;;;;;;;2.17;1.30;;;;;;;;;;757956;184;625585;-61
2022/02/20 11:02:33;;;;;;;7.22;1.90;;;;;;;;;;753267;184;641911;-61
2022/02/20 11:04:59;;;;;;;5.40;2.13;;;;;;;;;;757746;185;625259;-61
2022/02/20 11:07:25;;;;;;;3.10;1.90;;;;;;;;;;752838;184;643263;-61
2022/02/20 11:09:51;;;;;;;3.30;1.73;;;;;;;;;;756000;184;625520;-60
2022/02/20 11:12:18;;;;;;;3.23;1.57;;;;;;;;;;758047;184;627493;-61
2022/02/20 11:14:43;;;;;;;4.07;1.97;;;;;;;;;;756343;184;634804;-61
2022/02/20 11:17:09;;;;;;;2.10;0.87;;;;;;;;;;754771;186;633015;-61
2022/02/20 11:19:36;;;;;;;3.30;1.67;;;;;;;;;;752911;183;617268;-61
2022/02/20 11:22:02;;;;;;;3.13;1.30;;;;;;;;;;756491;183;764760;-60
2022/02/20 11:24:28;;;;;;;5.57;1.80;;;;;;;;;;762128;184;644064;-61
2022/02/20 11:26:54;;;;;;;4.80;1.83;;;;;;;;;;762418;183;637312;-60
2022/02/20 11:29:20;;;;;;;3.30;2.10;;;;;;;;;;746757;183;626180;-60
2022/02/20 11:31:46;;;;;;;2.27;1.67;;;;;;;;;;763833;183;639715;-61
2022/02/20 11:34:12;;;;;;;3.80;1.90;;;;;;;;;;754137;184;619166;-61
2022/02/20 11:36:38;;;;;;;2.67;1.60;;;;;;;;;;760676;183;640849;-61
2022/02/20 11:39:05;;;;;;;9.67;1.93;;;;;;;;;;751153;183;637040;-63
2022/02/20 11:41:31;;;;;;;5.87;1.53;;;;;;;;;;760594;183;614660;-61
2022/02/20 11:43:57;;;;;;;3.83;1.80;;;;;;;;;;759231;184;619117;-60
2022/02/20 11:46:22;;;;;;;9.50;1.80;;;;;;;;;;752829;183;614411;-60
2022/02/20 11:48:54;;;;;;;2.17;1.13;;;;;;;;;;756081;184;633549;-62
2022/02/20 11:51:20;;;;;;;8.60;1.73;;;;;;;;;;754735;184;628901;-61
2022/02/20 11:53:46;;;;;;;3.80;1.70;;;;;;;;;;757439;184;626813;-62
2022/02/20 11:56:12;;;;;;;3.97;2.07;;;;;;;;;;758134;185;617107;-61
2022/02/20 11:58:37;;;;;;;4.40;1.93;;;;;;;;;;748971;184;650739;-61
2022/02/20 12:01:04;;;;;;;3.20;1.73;;;;;;;;;;751856;183;657711;-61
2022/02/20 12:03:31;;;;;;;4.43;1.47;;;;;;;;;;747154;183;848162;-62
2022/02/20 12:06:02;;;;;;;2.80;1.20;;;;;;;;;;754126;183;675545;-61
2022/02/20 12:08:31;;;;;;;4.80;1.80;;;;;;;;;;745667;184;633774;-61
2022/02/20 12:11:09;;;;;;;8.83;1.47;;;;;;;;;;759011;184;620969;-60
2022/02/20 12:13:35;;;;;;;4.43;1.67;;;;;;;;;;758747;184;629784;-61
2022/02/20 12:16:08;;;;;;;2.40;1.40;;;;;;;;;;754611;183;632552;-61
2022/02/20 12:18:33;;;;;;;3.37;1.97;;;;;;;;;;752507;184;615706;-62
2022/02/20 12:21:18;;;;;;;3.00;1.50;;;;;;;;;;756824;184;613394;-61
2022/02/20 12:23:46;;;;;;;2.57;1.57;;;;;;;;;;755050;184;619641;-60
2022/02/20 12:26:18;;;;;;;4.23;1.90;;;;;;;;;;753814;183;627925;-62
2022/02/20 12:28:44;;;;;;;2.67;1.40;;;;;;;;;;757507;184;637372;-61
2022/02/20 12:31:25;;;;;;;4.07;1.70;;;;;;;;;;756442;184;634800;-61
2022/02/20 12:33:51;;;;;;;4.47;1.63;;;;;;;;;;750711;183;1061320;-61
2022/02/20 12:36:23;;;;;;;2.33;1.40;;;;;;;;;;760007;184;629481;-61
2022/02/20 12:38:49;;;;;;;3.50;1.57;;;;;;;;;;760658;183;629949;-61
2022/02/20 12:41:15;;;;;;;3.30;1.77;;;;;;;;;;756353;183;632906;-61
2022/02/20 12:43:41;;;;;;;17.87;1.47;;;;;;;;;;752940;184;645018;-61
2022/02/20 12:46:07;;;;;;;2.90;1.90;;;;;;;;;;758941;184;647025;-61
2022/02/20 12:48:33;;;;;;;5.45;2.10;;;;;;;;;;756609;184;634966;-61
2022/02/20 12:50:59;;;;;;;6.10;1.83;;;;;;;;;;755145;183;631042;-61
2022/02/20 12:53:24;;;;;;;3.53;1.43;;;;;;;;;;759178;184;628966;-61
2022/02/20 12:55:50;;;;;;;2.30;1.27;;;;;;;;;;751915;184;857162;-60
2022/02/20 12:58:17;;;;;;;9.47;3.53;;;;;;;;;;756485;184;631225;-60
2022/02/20 13:00:42;;;;;;;2.60;0.93;;;;;;;;;;753114;184;631037;-59
2022/02/20 13:03:11;;;;;;;5.47;2.30;;;;;;;;;;760770;183;640226;-60
2022/02/20 13:05:37;;;;;;;7.43;2.10;;;;;;;;;;751134;184;631554;-59
2022/02/20 13:08:04;;;;;;;4.63;1.80;;;;;;;;;;748202;184;631486;-59
2022/02/20 13:10:30;;;;;;;3.17;1.67;;;;;;;;;;755698;184;614680;-59
2022/02/20 13:12:55;;;;;;;6.00;1.60;;;;;;;;;;758752;184;622236;-60
2022/02/20 13:15:21;;;;;;;5.53;1.90;;;;;;;;;;756247;185;637385;-60
2022/02/20 13:17:47;;;;;;;4.40;2.10;;;;;;;;;;756255;185;627162;-60
2022/02/20 13:20:19;;;;;;;5.70;1.90;;;;;;;;;;754079;184;638392;-60
2022/02/20 13:22:45;;;;;;;5.50;1.77;;;;;;;;;;755696;184;644208;-60
2022/02/20 13:25:10;;;;;;;4.10;1.60;;;;;;;;;;750900;184;619610;-60
2022/02/20 13:27:42;;;;;;;2.70;1.10;;;;;;;;;;756117;185;614978;-60
2022/02/20 13:30:08;;;;;;;4.10;1.70;;;;;;;;;;756188;184;643624;-60
2022/02/20 13:32:34;;;;;;;4.83;2.00;;;;;;;;;;753995;184;624508;-60
2022/02/20 13:35:02;;;;;;;9.30;2.50;;;;;;;;;;756988;184;630101;-60
2022/02/20 13:37:27;;;;;;;5.10;2.73;;;;;;;;;;767193;182;624420;-59
2022/02/20 13:39:52;;;;;;;3.20;1.80;;;;;;;;;;763024;183;621704;-60
2022/02/20 13:42:18;;;;;;;3.50;1.60;;;;;;;;;;758562;183;632539;-59
2022/02/20 13:44:44;;;;;;;4.00;2.20;;;;;;;;;;757888;184;624825;-60
2022/02/20 13:47:11;;;;;;;4.83;1.80;;;;;;;;;;754999;184;655888;-60
2022/02/20 13:49:41;;;;;;;4.67;1.73;;;;;;;;;;754208;183;623551;-60
2022/02/20 13:52:07;;;;;;;2.60;1.40;;;;;;;;;;759157;184;634950;-59
2022/02/20 13:54:35;;;;;;;10.00;3.70;;;;;;;;;;759757;184;620508;-60
2022/02/20 13:57:01;;;;;;;3.67;1.50;;;;;;;;;;752798;184;630127;-59
2022/02/20 13:59:27;;;;;;;3.47;1.87;;;;;;;;;;753633;184;619825;-61
2022/02/20 14:01:56;;;;;;;6.47;1.87;;;;;;;;;;759549;184;657292;-59
2022/02/20 14:04:22;;;;;;;5.43;2.23;;;;;;;;;;757242;184;636186;-59
2022/02/20 14:06:50;;;;;;;5.33;1.93;;;;;;;;;;755245;184;662071;-59
2022/02/20 14:09:16;;;;;;;11.73;2.53;;;;;;;;;;755474;184;638257;-59
2022/02/20 14:11:41;;;;;;;3.43;1.67;;;;;;;;;;757923;184;620627;-60
2022/02/20 14:14:13;;;;;;;4.10;2.00;;;;;;;;;;759151;184;636336;-59
2022/02/20 14:16:39;;;;;;;6.70;1.97;;;;;;;;;;759426;184;613929;-60
2022/02/20 14:19:05;;;;;;;4.43;1.83;;;;;;;;;;755837;184;634312;-60